Nearby METAR Reports

 

K6I2 - Springfield, Kentucky, USA
Distance from station: SSE 22mi, 36km
Updated: 10/02/2022 2:55pm
Few Clouds
Few Clouds
 Wind from N
Wind: N 10 mph , 17 km/h
Temperature: 72°F , 22°C
Dew Point: 50°F , 10°C
Humidity: 47%
Barometer: 30.15 inHg , 1021 hPa
Clouds: Few Clouds
Visibility: 10 miles , 16 km
Cloud details: Few Clouds 4500 ft
2022/10/02 18:55 K6I2 021855Z AUTO 36009KT 330V060 10SM FEW045 22/10 A3015 RMK AO2
KLOU - Louisville/Bowmn, Kentucky, USA
Distance from station: NW 25mi, 40km
Updated: 10/02/2022 2:53pm
Clear
Clear
 Wind from N
Wind: N 13 mph , 20 km/h, Gust: 23 mph , 37 km/h
Temperature: 73°F , 23°C
Dew Point: 48°F , 9°C
Humidity: 41%
Barometer: 30.15 inHg , 1021 hPa
Clouds: Clear
Visibility: 10 miles , 16 km
2022/10/02 18:53 KLOU 021853Z 01011G20KT 350V050 10SM CLR 23/09 A3015 RMK AO2 SLP207 T02330094 $
 
KSDF - Louisville, Kentucky, USA
Distance from station: NW 25mi, 41km
Updated: 10/02/2022 2:56pm
Few Clouds
Few Clouds
 Wind from N
Wind: N 13 mph , 20 km/h, Gust: 21 mph , 33 km/h
Temperature: 75°F , 24°C
Dew Point: 48°F , 9°C
Humidity: 39%
Barometer: 30.15 inHg , 1021 hPa
Clouds: Few Clouds
Visibility: 10 miles , 16 km
Cloud details: Few Clouds 5000 ft
2022/10/02 18:56 KSDF 021856Z 36011G18KT 10SM FEW050 24/09 A3015 RMK AO2 SLP206 T02390094 $
KEKX - Elizabeth, Kentucky, USA
Distance from station: WSW 30mi, 48km
Updated: 10/02/2022 2:55pm
Clear
Clear
 Wind from NE
Wind: NE 12 mph , 19 km/h, Gust: 17 mph , 28 km/h
Temperature: 72°F , 22°C
Dew Point: 48°F , 9°C
Humidity: 44%
Barometer: 30.16 inHg , 1021.3 hPa
Clouds: Clear
Visibility: 10 miles , 16 km
2022/10/02 18:55 KEKX 021855Z AUTO 05010G15KT 10SM CLR 22/09 A3016 RMK AO2 T02210089
 
KFFT - Frankfort, Kentucky, USA
Distance from station: NE 32mi, 51km
Updated: 10/02/2022 2:53pm
Few Clouds
Few Clouds
 Wind from N
Wind: N 12 mph , 19 km/h, Gust: 20 mph , 31 km/h
Temperature: 73°F , 23°C
Dew Point: 52°F , 11°C
Humidity: 47%
Barometer: 30.15 inHg , 1021 hPa
Clouds: Few Clouds
Visibility: 10 miles , 16 km
Cloud details: Few Clouds 4200 ft
2022/10/02 18:53 KFFT 021853Z AUTO 36010G17KT 10SM FEW042 23/11 A3015 RMK AO2 SLP203 T02280106
KFTK - Fort Knox/Godman, Kentucky, USA
Distance from station: W 32mi, 51km
Updated: 10/02/2022 2:55pm
Clear
Clear
 Wind from N
Wind: N 13 mph , 20 km/h, Gust: 18 mph , 30 km/h
Temperature: 72°F , 22°C
Dew Point: 48°F , 9°C
Humidity: 44%
Barometer: 30.14 inHg , 1020.7 hPa
Clouds: Clear
Visibility: 10 miles , 16 km
2022/10/02 18:55 KFTK 021855Z AUTO 01011G16KT 10SM CLR 22/09 A3014 RMK AO2 SLP207 T02220090 $
 
KDVK - Danville, Kentucky, USA
Distance from station: SE 42mi, 67km
Updated: 10/02/2022 2:50pm
Mostly cloudy
Mostly cloudy
 Wind from ENE
Wind: ENE 12 mph , 19 km/h, Gust: 17 mph , 28 km/h
Temperature: 68°F , 20°C
Dew Point: 50°F , 10°C
Humidity: 53%
Barometer: 30.16 inHg , 1021.3 hPa
Clouds: Mostly cloudy
Visibility: 10 miles , 16 km
Cloud details: Mostly cloudy 3700 ft
2022/10/02 18:50 KDVK 021850Z AUTO 07010G15KT 10SM BKN037 20/10 A3016 RMK AO2
KLEX - Lexington, Kentucky, USA
Distance from station: E 43mi, 70km
Updated: 10/02/2022 2:54pm
Partly cloudy
Partly cloudy
 Wind from N
Wind: N 13 mph , 20 km/h
Temperature: 72°F , 22°C
Dew Point: 50°F , 10°C
Humidity: 47%
Barometer: 30.14 inHg , 1020.7 hPa
Clouds: Partly cloudy
Visibility: 10 miles , 16 km
Cloud details: Partly cloudy 4000 ft
2022/10/02 18:54 KLEX 021854Z 01011KT 10SM SCT040 22/10 A3014 RMK AO2 SLP202 T02220100 $